Time;durP1;ratioP1;P1;durP2;ratioP2;P2;SDS_P1;SDS_P2;PMS_P1;PMS_P2;Temp;Humidity;BMP_temperature;BMP_pressure;BME280_temperature;BME280_humidity;BME280_pressure;Samples;Min_cycle;Max_cycle;Signal;HPM_P1;HPM_P2
2022/02/25 00:02:33;;;;;;;99.13;51.40;;;;;;;5.93;100.00;101722.66;5120411;27;20070;-71
2022/02/25 00:05:19;;;;;;;83.72;47.63;;;;;;;5.62;100.00;101720.31;5135297;27;20366;-71
2022/02/25 00:08:05;;;;;;;85.35;48.75;;;;;;;5.84;100.00;101725.09;5135878;27;20027;-71
2022/02/25 00:10:51;;;;;;;96.38;50.38;;;;;;;6.11;100.00;101719.50;5135386;27;20027;-70
2022/02/25 00:13:36;;;;;;;97.32;50.35;;;;;;;6.07;100.00;101722.91;5119610;27;20046;-71
2022/02/25 00:16:22;;;;;;;101.13;52.50;;;;;;;6.11;100.00;101719.50;5135972;27;20020;-71
2022/02/25 00:19:08;;;;;;;100.45;50.60;;;;;;;5.82;100.00;101723.34;5120776;27;20029;-70
2022/02/25 00:21:54;;;;;;;102.03;52.15;;;;;;;6.18;100.00;101721.34;5136061;27;20401;-71
2022/02/25 00:24:39;;;;;;;93.55;49.70;;;;;;;6.02;100.00;101722.81;5121232;27;20031;-70
2022/02/25 00:27:25;;;;;;;82.20;48.70;;;;;;;5.72;100.00;101721.38;5135827;27;20050;-71
2022/02/25 00:30:12;;;;;;;88.57;47.90;;;;;;;5.86;100.00;101718.19;5134863;27;20027;-71
2022/02/25 00:32:58;;;;;;;73.90;42.45;;;;;;;6.07;100.00;101720.28;5135635;27;20041;-70
2022/02/25 00:35:44;;;;;;;78.55;45.42;;;;;;;5.89;100.00;101713.06;5134891;27;20023;-70
2022/02/25 00:38:29;;;;;;;85.57;46.78;;;;;;;5.94;100.00;101713.16;5134753;27;20398;-70
2022/02/25 00:41:15;;;;;;;90.00;47.70;;;;;;;5.72;100.00;101706.66;5135233;27;20024;-71
2022/02/25 00:44:01;;;;;;;94.85;50.20;;;;;;;5.27;100.00;101708.41;5135180;27;20015;-71
2022/02/25 00:46:47;;;;;;;93.75;49.35;;;;;;;5.78;100.00;101701.53;5118924;27;20031;-70
2022/02/25 00:49:33;;;;;;;89.68;51.85;;;;;;;5.39;100.00;101704.31;5120729;27;20038;-70
2022/02/25 00:52:19;;;;;;;100.60;53.47;;;;;;;5.65;100.00;101701.31;5135972;27;20358;-71
2022/02/25 00:55:05;;;;;;;89.38;52.22;;;;;;;5.76;100.00;101692.88;5112852;27;20100;-71
2022/02/25 00:57:51;;;;;;;101.90;55.10;;;;;;;6.07;100.00;101702.94;5135142;27;20463;-71
2022/02/25 01:00:37;;;;;;;105.28;56.97;;;;;;;5.64;100.00;101696.97;5133211;27;20038;-70
2022/02/25 01:03:22;;;;;;;107.60;55.05;;;;;;;5.47;100.00;101693.19;5133876;27;20451;-70
2022/02/25 01:06:10;;;;;;;91.15;50.42;;;;;;;5.93;100.00;101690.56;5134417;27;20439;-70
2022/02/25 01:08:55;;;;;;;92.30;51.67;;;;;;;5.68;100.00;101693.56;5134674;27;20073;-71
2022/02/25 01:11:41;;;;;;;81.35;45.33;;;;;;;5.82;100.00;101682.59;5133863;27;20050;-71
2022/02/25 01:14:27;;;;;;;84.78;46.80;;;;;;;5.54;100.00;101679.47;5134006;28;20019;-71
2022/02/25 01:17:13;;;;;;;81.18;45.28;;;;;;;5.34;100.00;101679.97;5134733;28;20034;-70
2022/02/25 01:19:59;;;;;;;82.72;44.38;;;;;;;5.33;100.00;101683.41;5126391;28;20023;-70
2022/02/25 01:22:45;;;;;;;77.95;40.33;;;;;;;5.21;100.00;101675.38;5134895;28;20344;-70
2022/02/25 01:25:31;;;;;;;53.15;31.67;;;;;;;5.56;100.00;101677.75;5134066;28;20038;-70
2022/02/25 01:28:17;;;;;;;47.35;26.77;;;;;;;5.46;100.00;101676.69;5135250;28;20019;-70
2022/02/25 01:31:03;;;;;;;39.85;24.95;;;;;;;5.18;100.00;101684.81;5134588;28;20024;-71
2022/02/25 01:33:49;;;;;;;43.03;24.13;;;;;;;5.18;100.00;101685.72;5134357;28;20027;-71
2022/02/25 01:36:34;;;;;;;41.33;22.88;;;;;;;5.19;100.00;101674.47;5133867;27;20031;-71
2022/02/25 01:39:20;;;;;;;40.45;22.48;;;;;;;5.31;100.00;101666.06;5119777;28;20039;-70
2022/02/25 01:42:07;;;;;;;37.05;21.88;;;;;;;5.55;100.00;101656.09;5133664;28;20023;-70
2022/02/25 01:44:52;;;;;;;38.42;21.35;;;;;;;5.14;100.00;101655.31;5135111;28;20366;-70
2022/02/25 01:47:38;;;;;;;44.53;24.10;;;;;;;5.13;100.00;101650.97;5133887;28;20023;-72
2022/02/25 01:50:24;;;;;;;46.33;23.98;;;;;;;5.27;100.00;101653.84;5134406;28;20442;-70
2022/02/25 01:53:10;;;;;;;44.25;23.85;;;;;;;4.85;100.00;101643.50;5135208;28;20062;-70
2022/02/25 01:55:56;;;;;;;46.50;26.50;;;;;;;4.88;100.00;101642.69;5134775;28;20461;-71
2022/02/25 01:58:41;;;;;;;45.80;26.45;;;;;;;4.97;100.00;101643.75;5119960;28;20088;-71
2022/02/25 02:01:27;;;;;;;41.95;23.80;;;;;;;5.17;100.00;101623.34;5133725;28;20389;-70
2022/02/25 02:04:13;;;;;;;41.72;22.67;;;;;;;4.88;100.00;101627.09;5132712;28;20092;-70
2022/02/25 02:07:00;;;;;;;43.78;24.33;;;;;;;4.91;100.00;101629.75;5133103;28;20034;-70
2022/02/25 02:09:46;;;;;;;43.85;24.00;;;;;;;4.84;100.00;101626.19;5119317;28;20019;-70
2022/02/25 02:12:31;;;;;;;44.05;24.63;;;;;;;5.12;100.00;101631.06;5133749;28;20055;-71
2022/02/25 02:15:17;;;;;;;40.60;23.45;;;;;;;5.33;100.00;101626.25;5134401;28;20108;-70
2022/02/25 02:18:03;;;;;;;46.28;26.73;;;;;;;5.28;100.00;101630.47;5134937;28;20030;-70
2022/02/25 02:20:49;;;;;;;50.90;27.83;;;;;;;5.38;100.00;101627.19;5121424;27;20412;-70
2022/02/25 02:23:35;;;;;;;55.95;31.98;;;;;;;5.30;100.00;101633.09;5136665;27;20122;-70
2022/02/25 02:26:21;;;;;;;54.53;32.72;;;;;;;5.38;100.00;101623.72;5138406;27;20101;-70
2022/02/25 02:29:08;;;;;;;52.70;30.02;;;;;;;5.55;100.00;101630.09;5122384;27;20038;-71
2022/02/25 02:31:54;;;;;;;53.95;29.80;;;;;;;4.64;100.00;101637.88;5121421;27;20047;-70
2022/02/25 02:34:40;;;;;;;52.13;27.15;;;;;;;4.42;100.00;101635.66;5138028;27;20023;-70
2022/02/25 02:37:26;;;;;;;38.67;23.40;;;;;;;4.02;100.00;101634.72;5137082;27;20426;-70
2022/02/25 02:40:12;;;;;;;40.97;25.25;;;;;;;4.21;100.00;101629.09;5138397;27;20034;-70
2022/02/25 02:42:57;;;;;;;41.45;24.00;;;;;;;3.99;100.00;101625.13;5137507;27;20031;-71
2022/02/25 02:45:43;;;;;;;37.80;22.38;;;;;;;3.98;100.00;101620.78;5137135;27;20120;-70
2022/02/25 02:48:29;;;;;;;34.30;22.50;;;;;;;4.20;100.00;101619.56;5137319;27;20037;-71
2022/02/25 02:51:15;;;;;;;35.13;22.02;;;;;;;4.14;100.00;101622.91;5137473;27;20439;-71
2022/02/25 02:54:01;;;;;;;34.67;20.65;;;;;;;4.33;100.00;101619.88;5136842;27;20027;-70
2022/02/25 02:56:46;;;;;;;38.53;21.90;;;;;;;4.56;100.00;101610.88;5137202;27;20019;-71
2022/02/25 02:59:32;;;;;;;35.17;21.23;;;;;;;4.80;100.00;101613.09;5136994;27;20051;-71
2022/02/25 03:02:18;;;;;;;38.35;21.33;;;;;;;5.15;100.00;101607.72;5136679;27;20130;-70
2022/02/25 03:05:04;;;;;;;41.05;22.08;;;;;;;5.00;100.00;101609.16;5137240;27;20031;-70
2022/02/25 03:07:50;;;;;;;36.25;21.88;;;;;;;4.78;100.00;101615.66;5137019;27;20038;-70
2022/02/25 03:10:37;;;;;;;45.47;24.48;;;;;;;4.57;100.00;101610.03;5137867;27;20351;-70
2022/02/25 03:13:23;;;;;;;40.70;22.85;;;;;;;5.01;100.00;101608.31;5136907;27;20019;-70
2022/02/25 03:16:08;;;;;;;42.20;23.15;;;;;;;4.44;100.00;101608.03;5137670;27;20031;-69
2022/02/25 03:18:54;;;;;;;45.58;26.38;;;;;;;4.52;100.00;101611.66;5137480;27;20027;-70
2022/02/25 03:21:40;;;;;;;42.65;23.80;;;;;;;4.78;100.00;101610.47;5137005;27;20443;-70
2022/02/25 03:24:26;;;;;;;42.03;24.23;;;;;;;5.20;100.00;101607.81;5135581;27;20366;-71
2022/02/25 03:27:11;;;;;;;39.42;23.52;;;;;;;4.76;100.00;101613.88;5136649;27;20038;-71
2022/02/25 03:29:57;;;;;;;38.85;22.58;;;;;;;4.64;100.00;101614.50;5136384;27;20417;-70
2022/02/25 03:32:43;;;;;;;40.33;23.58;;;;;;;4.59;100.00;101613.53;5136126;27;20063;-72
2022/02/25 03:35:31;;;;;;;46.15;24.50;;;;;;;4.14;100.00;101609.09;5136986;27;20027;-70
2022/02/25 03:38:17;;;;;;;75.40;45.90;;;;;;;4.06;100.00;101611.47;5136955;27;20030;-71
2022/02/25 03:41:03;;;;;;;99.25;55.35;;;;;;;4.38;100.00;101605.28;5136723;27;20106;-69
2022/02/25 03:43:49;;;;;;;128.63;62.05;;;;;;;4.70;100.00;101596.44;5121225;27;20027;-71
2022/02/25 03:46:35;;;;;;;158.00;76.65;;;;;;;4.76;100.00;101594.00;5136042;27;20122;-70
2022/02/25 03:49:20;;;;;;;158.30;79.65;;;;;;;4.51;100.00;101594.31;5142315;27;20099;-70
2022/02/25 03:52:06;;;;;;;146.52;72.13;;;;;;;4.07;100.00;101600.25;5128281;27;20079;-69
2022/02/25 03:54:52;;;;;;;142.63;68.80;;;;;;;3.57;100.00;101599.91;5140667;27;20305;-70
2022/02/25 03:57:38;;;;;;;137.02;67.18;;;;;;;3.55;100.00;101592.13;5136063;27;20358;-70
2022/02/25 04:00:24;;;;;;;130.13;63.83;;;;;;;3.51;100.00;101590.31;5137364;27;20089;-70
2022/02/25 04:03:10;;;;;;;119.78;60.78;;;;;;;3.63;100.00;101590.59;5138076;27;20019;-70
2022/02/25 04:05:55;;;;;;;115.70;57.45;;;;;;;3.73;100.00;101592.56;5126780;27;20088;-70
2022/02/25 04:08:43;;;;;;;121.15;57.65;;;;;;;3.62;100.00;101590.56;5148186;27;20084;-69
2022/02/25 04:11:28;;;;;;;110.90;56.20;;;;;;;3.62;100.00;101591.41;5149577;27;20019;-69
2022/02/25 04:14:14;;;;;;;111.57;54.30;;;;;;;3.56;100.00;101595.56;5147739;27;20513;-70
2022/02/25 04:17:00;;;;;;;92.28;47.55;;;;;;;3.59;100.00;101591.38;5149243;27;20027;-69
2022/02/25 04:19:46;;;;;;;70.30;38.00;;;;;;;3.44;100.00;101593.56;5147716;27;20023;-71
2022/02/25 04:22:32;;;;;;;66.22;38.97;;;;;;;3.46;100.00;101598.78;5148419;27;20032;-70
2022/02/25 04:25:18;;;;;;;52.13;31.67;;;;;;;4.01;100.00;101604.44;5133688;27;20027;-71
2022/02/25 04:28:04;;;;;;;60.58;33.75;;;;;;;3.87;100.00;101606.69;5133226;27;20079;-69
2022/02/25 04:30:51;;;;;;;63.28;36.20;;;;;;;3.65;100.00;101611.34;5148141;27;20042;-72
2022/02/25 04:33:36;;;;;;;66.75;36.13;;;;;;;3.30;100.00;101602.69;5148405;27;20027;-70
2022/02/25 04:36:22;;;;;;;57.50;32.22;;;;;;;3.01;100.00;101606.22;5132328;27;20022;-70
2022/02/25 04:39:08;;;;;;;54.47;30.27;;;;;;;2.94;100.00;101598.28;5133466;27;20045;-71
2022/02/25 04:41:54;;;;;;;49.17;27.40;;;;;;;2.97;100.00;101599.22;5146566;27;20046;-70
2022/02/25 04:44:40;;;;;;;45.78;26.40;;;;;;;2.91;100.00;101601.66;5138164;27;20106;-71
2022/02/25 04:47:26;;;;;;;45.42;25.42;;;;;;;2.98;100.00;101592.34;5135989;27;20340;-70
2022/02/25 04:50:13;;;;;;;46.10;25.48;;;;;;;2.89;100.00;101602.47;5120388;27;20019;-71
2022/02/25 04:52:59;;;;;;;45.55;26.05;;;;;;;2.97;100.00;101596.63;5135926;27;20049;-70
2022/02/25 04:55:46;;;;;;;40.08;24.75;;;;;;;2.70;100.00;101598.44;5134909;27;20037;-70
2022/02/25 04:58:33;;;;;;;44.88;24.25;;;;;;;2.78;100.00;101596.97;5120843;27;20479;-70
2022/02/25 05:01:19;;;;;;;44.28;25.08;;;;;;;2.73;100.00;101592.53;5134504;27;20050;-71
2022/02/25 05:04:06;;;;;;;52.90;25.77;;;;;;;2.59;100.00;101588.66;5135780;27;20051;-71
2022/02/25 05:06:52;;;;;;;43.42;24.35;;;;;;;2.81;100.00;101588.44;5139830;27;20027;-70
2022/02/25 05:09:37;;;;;;;42.60;24.05;;;;;;;2.92;100.00;101584.41;5145286;27;20023;-69
2022/02/25 05:12:23;;;;;;;45.15;25.52;;;;;;;2.81;100.00;101585.84;5146025;27;20461;-70
2022/02/25 05:21:18;;;;;;;48.60;26.33;;;;;;;2.86;100.00;101584.25;5148081;28;20039;-72
2022/02/25 05:24:04;;;;;;;50.10;28.67;;;;;;;2.83;100.00;101587.63;5149590;28;20031;-70
2022/02/25 05:26:50;;;;;;;55.63;30.00;;;;;;;3.03;100.00;101599.41;5150111;28;20110;-72
2022/02/25 05:29:35;;;;;;;48.67;28.00;;;;;;;3.17;100.00;101600.63;5149626;28;20034;-70
2022/02/25 05:32:21;;;;;;;58.70;28.48;;;;;;;3.25;100.00;101596.53;5150983;28;20027;-70
2022/02/25 05:35:08;;;;;;;49.15;26.67;;;;;;;3.06;100.00;101599.47;5151031;28;20091;-71
2022/02/25 05:37:54;;;;;;;48.28;27.15;;;;;;;3.21;100.00;101589.50;5135594;28;20114;-70
2022/02/25 05:40:40;;;;;;;53.35;28.27;;;;;;;3.12;100.00;101590.97;5136565;28;20236;-71
2022/02/25 05:43:26;;;;;;;55.20;29.20;;;;;;;3.00;100.00;101590.66;5135172;28;20027;-70
2022/02/25 05:46:13;;;;;;;52.65;28.48;;;;;;;2.91;100.00;101582.66;5120838;28;20062;-68
2022/02/25 05:48:58;;;;;;;50.47;29.15;;;;;;;2.97;100.00;101586.28;5135600;28;20100;-70
2022/02/25 05:51:44;;;;;;;50.80;29.05;;;;;;;3.09;100.00;101573.66;5141223;28;20023;-69
2022/02/25 05:54:30;;;;;;;56.22;30.17;;;;;;;3.21;100.00;101576.56;5143961;27;20407;-70
2022/02/25 05:57:16;;;;;;;58.72;29.77;;;;;;;3.25;100.00;101572.31;5139513;27;20038;-70
2022/02/25 06:00:04;;;;;;;58.90;29.35;;;;;;;3.44;100.00;101585.81;5140427;27;20058;-70
2022/02/25 06:02:51;;;;;;;54.17;28.73;;;;;;;3.48;100.00;101578.97;5141495;27;20355;-70
2022/02/25 06:05:37;;;;;;;50.70;29.02;;;;;;;3.74;100.00;101576.16;5138719;27;20336;-70
2022/02/25 06:08:22;;;;;;;61.70;32.63;;;;;;;3.76;100.00;101571.91;5124327;27;20351;-70
2022/02/25 06:11:08;;;;;;;64.43;33.97;;;;;;;3.82;100.00;101576.38;5138046;27;20031;-70
2022/02/25 06:13:54;;;;;;;61.30;33.33;;;;;;;3.73;100.00;101573.53;5138342;27;20563;-71
2022/02/25 06:16:40;;;;;;;61.83;32.78;;;;;;;3.72;100.00;101567.50;5138422;27;20084;-70
2022/02/25 06:19:26;;;;;;;63.13;34.75;;;;;;;3.58;100.00;101570.59;5136522;27;20031;-70
2022/02/25 06:22:12;;;;;;;59.97;32.20;;;;;;;3.59;100.00;101573.22;5138279;27;20027;-71
2022/02/25 06:24:57;;;;;;;52.05;29.83;;;;;;;3.94;100.00;101566.28;5137356;27;20023;-71
2022/02/25 06:27:44;;;;;;;51.90;31.50;;;;;;;3.93;100.00;101569.69;5138479;27;20123;-71
2022/02/25 06:30:31;;;;;;;55.92;31.17;;;;;;;3.83;100.00;101571.22;5136881;27;20027;-70
2022/02/25 06:33:17;;;;;;;52.58;29.92;;;;;;;3.81;100.00;101577.19;5138100;27;20054;-71
2022/02/25 06:36:02;;;;;;;57.35;33.50;;;;;;;3.75;100.00;101575.34;5138328;27;20454;-70
2022/02/25 06:38:48;;;;;;;58.47;32.22;;;;;;;3.90;100.00;101577.41;5137008;27;20476;-70
2022/02/25 06:41:34;;;;;;;51.95;29.42;;;;;;;3.94;100.00;101587.88;5136986;27;20055;-71
2022/02/25 06:44:20;;;;;;;54.85;31.42;;;;;;;4.01;100.00;101579.41;5136820;27;20048;-71
2022/02/25 06:47:06;;;;;;;46.72;28.73;;;;;;;4.21;100.00;101585.91;5137193;27;20050;-69
2022/02/25 06:49:52;;;;;;;43.17;25.05;;;;;;;3.90;100.00;101580.88;5136991;27;20054;-71
2022/02/25 06:52:38;;;;;;;42.40;25.58;;;;;;;4.24;100.00;101580.78;5122810;27;20109;-71
2022/02/25 06:55:24;;;;;;;39.13;24.75;;;;;;;4.11;100.00;101586.53;5136590;27;20038;-71
2022/02/25 06:58:10;;;;;;;39.08;24.42;;;;;;;4.11;100.00;101590.84;5137898;27;20080;-70
2022/02/25 07:00:56;;;;;;;37.85;23.08;;;;;;;4.24;100.00;101587.69;5136703;27;20081;-71
2022/02/25 07:03:41;;;;;;;36.03;21.65;;;;;;;4.56;100.00;101584.03;5122525;27;20023;-71
2022/02/25 07:06:27;;;;;;;45.35;22.80;;;;;;;4.79;100.00;101577.59;5136380;27;20100;-70
2022/02/25 07:09:15;;;;;;;41.58;22.63;;;;;;;4.73;100.00;101577.47;5121546;27;20108;-71
2022/02/25 07:12:01;;;;;;;39.10;23.20;;;;;;;4.79;100.00;101583.66;5136341;27;20393;-71
2022/02/25 07:14:46;;;;;;;34.00;21.52;;;;;;;5.03;100.00;101588.44;5108351;27;20023;-71
2022/02/25 07:17:32;;;;;;;33.15;19.63;;;;;;;4.58;100.00;101584.94;5136218;27;20344;-70
2022/02/25 07:20:18;;;;;;;32.83;20.13;;;;;;;4.66;100.00;101584.25;5137480;27;20101;-72
2022/02/25 07:23:04;;;;;;;34.97;21.25;;;;;;;5.11;100.00;101574.75;5137090;27;20027;-71
2022/02/25 07:25:50;;;;;;;33.90;20.88;;;;;;;4.76;100.00;101580.13;5136558;27;20031;-71
2022/02/25 07:28:35;;;;;;;39.10;22.67;;;;;;;5.04;100.00;101578.09;5137042;27;20023;-71
2022/02/25 07:31:21;;;;;;;37.80;24.35;;;;;;;5.48;100.00;101581.47;5135837;27;20138;-70
2022/02/25 07:34:07;;;;;;;38.63;23.85;;;;;;;5.84;100.00;101566.50;5136031;27;20027;-71
2022/02/25 07:36:53;;;;;;;43.80;26.35;;;;;;;6.03;100.00;101580.63;5137190;27;20027;-71
2022/02/25 07:39:42;;;;;;;41.45;24.10;;;;;;;5.82;100.00;101560.38;5122002;27;20027;-72
2022/02/25 07:42:34;;;;;;;44.28;24.77;;;;;;;6.18;100.00;101575.66;5135762;27;20109;-70
2022/02/25 07:45:25;;;;;;;41.47;25.23;;;;;;;6.35;100.00;101564.59;5135937;27;20031;-71
2022/02/25 07:48:11;;;;;;;42.00;25.67;;;;;;;6.56;100.00;101561.41;5135767;27;20451;-70
2022/02/25 07:50:56;;;;;;;42.75;26.23;;;;;;;6.95;100.00;101573.13;5121761;27;20081;-70
2022/02/25 07:53:44;;;;;;;39.92;24.92;;;;;;;6.83;100.00;101573.00;5134789;27;20055;-71
2022/02/25 07:56:30;;;;;;;45.80;26.00;;;;;;;7.02;100.00;101574.06;5135411;27;20031;-71
2022/02/25 07:59:17;;;;;;;42.55;23.95;;;;;;;7.01;100.00;101573.22;5134779;27;20039;-70
2022/02/25 08:02:03;;;;;;;35.33;22.90;;;;;;;7.14;100.00;101582.00;5135333;27;20027;-70
2022/02/25 08:04:49;;;;;;;33.83;21.00;;;;;;;7.18;100.00;101582.06;5121403;27;20058;-71
2022/02/25 08:07:35;;;;;;;30.40;20.00;;;;;;;7.15;100.00;101582.03;5134430;27;20027;-71
2022/02/25 08:10:21;;;;;;;34.50;22.80;;;;;;;7.59;100.00;101575.50;5135084;27;20027;-72
2022/02/25 08:13:08;;;;;;;31.80;21.73;;;;;;;7.89;100.00;101578.34;5134968;27;20019;-72
2022/02/25 08:15:54;;;;;;;31.17;20.13;;;;;;;7.81;100.00;101581.75;5136144;27;20031;-71
2022/02/25 08:18:39;;;;;;;31.05;21.27;;;;;;;7.90;100.00;101580.09;5119657;27;20034;-72
2022/02/25 08:21:28;;;;;;;37.33;23.85;;;;;;;8.14;100.00;101574.13;5134307;27;20103;-70
2022/02/25 08:24:13;;;;;;;37.85;23.55;;;;;;;8.44;100.00;101577.81;5134490;27;20035;-72
2022/02/25 08:26:59;;;;;;;32.22;22.45;;;;;;;8.53;100.00;101569.16;5134145;27;20065;-71
2022/02/25 08:29:45;;;;;;;30.98;20.73;;;;;;;8.90;100.00;101563.19;5134853;27;20045;-71
2022/02/25 08:32:31;;;;;;;32.63;19.65;;;;;;;9.02;100.00;101565.84;5119509;27;20034;-71
2022/02/25 08:35:18;;;;;;;26.52;17.40;;;;;;;9.38;100.00;101565.91;5120493;27;20023;-71
2022/02/25 08:38:08;;;;;;;24.23;16.33;;;;;;;9.33;100.00;101560.66;5120117;27;20062;-71
2022/02/25 08:40:54;;;;;;;27.27;17.38;;;;;;;9.71;100.00;101568.53;5119915;27;20066;-71
2022/02/25 08:43:39;;;;;;;27.77;18.02;;;;;;;9.36;100.00;101565.91;5120437;27;20029;-71
2022/02/25 08:46:27;;;;;;;22.90;15.20;;;;;;;9.96;100.00;101570.22;5119912;27;20023;-71
2022/02/25 08:49:13;;;;;;;23.67;16.05;;;;;;;9.38;100.00;101558.94;5134621;27;20344;-71
2022/02/25 08:51:58;;;;;;;23.73;15.50;;;;;;;9.96;100.00;101560.66;5135029;27;20069;-71
2022/02/25 08:54:44;;;;;;;23.48;14.52;;;;;;;9.38;100.00;101560.66;5119869;27;20047;-71
2022/02/25 08:57:30;;;;;;;21.63;14.55;;;;;;;9.90;100.00;101562.41;5119776;27;20125;-71
2022/02/25 09:00:22;;;;;;;21.13;13.52;;;;;;;10.32;100.00;101564.94;5132992;27;20118;-71
2022/02/25 09:03:11;;;;;;;22.10;14.48;;;;;;;10.32;100.00;101546.63;5134366;27;20031;-71
2022/02/25 09:05:57;;;;;;;22.88;13.77;;;;;;;10.58;100.00;101549.13;5136399;27;20314;-72
2022/02/25 09:08:43;;;;;;;18.90;13.63;;;;;;;10.74;100.00;101546.47;5135601;27;20023;-70
2022/02/25 09:11:28;;;;;;;22.02;13.48;;;;;;;9.97;100.00;101551.06;5106493;27;20065;-71
2022/02/25 09:14:14;;;;;;;20.98;12.88;;;;;;;10.28;100.00;101550.13;5134427;27;20042;-71
2022/02/25 09:17:00;;;;;;;20.98;13.23;;;;;;;10.20;100.00;101553.66;5134777;28;20113;-71
2022/02/25 09:19:49;;;;;;;21.80;12.98;;;;;;;9.88;100.00;101546.69;5119100;28;20033;-70
2022/02/25 09:22:35;;;;;;;16.05;11.40;;;;;;;9.98;100.00;101548.41;5118936;28;20043;-71
2022/02/25 09:25:30;;;;;;;22.60;11.93;;;;;;;10.13;100.00;101544.06;5133653;28;20110;-72
2022/02/25 09:28:24;;;;;;;13.73;10.05;;;;;;;10.08;100.00;101541.44;5134316;27;20175;-72
2022/02/25 09:31:15;;;;;;;15.48;10.18;;;;;;;10.44;100.00;101538.72;5138923;27;20084;-71
2022/02/25 09:34:01;;;;;;;15.75;10.38;;;;;;;10.85;100.00;101526.28;5139520;27;20031;-71
2022/02/25 09:37:00;;;;;;;;;;;;;;;;;;;;;
2022/02/25 09:39:46;;;;;;;14.70;10.38;;;;;;;10.65;100.00;101517.66;5138667;27;20034;-71
2022/02/25 09:42:32;;;;;;;13.02;9.65;;;;;;;10.52;100.00;101521.22;5138587;27;20024;-71
2022/02/25 09:45:18;;;;;;;18.10;11.82;;;;;;;9.86;100.00;101510.94;5138043;27;20015;-71
2022/02/25 09:48:07;;;;;;;15.05;10.95;;;;;;;10.42;100.00;101509.03;5138123;27;20532;-71
2022/02/25 09:50:53;;;;;;;19.35;11.90;;;;;;;10.58;100.00;101501.97;5138662;27;20045;-71
2022/02/25 09:53:39;;;;;;;15.90;12.50;;;;;;;10.88;100.00;101500.06;5124206;27;20035;-71
2022/02/25 09:56:25;;;;;;;21.10;14.18;;;;;;;10.43;100.00;101492.44;5137293;27;20018;-72
2022/02/25 09:59:11;;;;;;;22.45;14.60;;;;;;;10.24;100.00;101492.53;5132759;27;20062;-71
2022/02/25 10:02:10;;;;;;;20.05;13.38;;;;;;;10.15;100.00;101485.56;5117699;28;20451;-72
2022/02/25 10:05:33;;;;;;;14.90;11.23;;;;;;;10.38;100.00;101472.38;5117878;28;20023;-71
2022/02/25 10:08:22;;;;;;;18.05;11.60;;;;;;;10.97;100.00;101468.53;5002317;28;20117;-71
2022/02/25 10:11:10;;;;;;;18.40;13.38;;;;;;;10.95;100.00;101477.28;5117480;28;20024;-71
2022/02/25 10:14:14;;;;;;;37.65;25.20;;;;;;;11.09;100.00;101472.81;5118008;28;20080;-71
2022/02/25 10:17:13;;;;;;;15.88;11.05;;;;;;;10.78;100.00;101463.44;5117621;28;20123;-71
2022/02/25 10:20:03;;;;;;;14.23;10.73;;;;;;;10.59;100.00;101459.16;5116053;28;20030;-71
2022/02/25 10:22:49;;;;;;;16.75;11.18;;;;;;;10.82;100.00;101446.78;5116244;28;20473;-71
2022/02/25 10:25:36;;;;;;;14.43;10.30;;;;;;;10.72;100.00;101443.34;5116838;28;20092;-72
2022/02/25 10:28:29;;;;;;;17.23;11.65;;;;;;;10.70;100.00;101437.28;5116123;28;20089;-71
2022/02/25 10:31:25;;;;;;;17.63;10.75;;;;;;;11.14;100.00;101439.56;5101585;28;20015;-72
2022/02/25 10:34:16;;;;;;;15.45;9.88;;;;;;;11.03;95.69;101439.66;5111456;28;20107;-71
2022/02/25 10:37:02;;;;;;;14.35;9.80;;;;;;;10.82;94.56;101428.44;5102716;28;20024;-71
2022/02/25 10:39:51;;;;;;;11.98;8.90;;;;;;;11.42;93.29;101431.44;5116370;28;20027;-72
2022/02/25 10:42:42;;;;;;;13.52;8.20;;;;;;;10.79;95.67;101424.09;5100472;28;20061;-71
2022/02/25 10:45:36;;;;;;;12.32;8.40;;;;;;;11.46;90.41;101417.41;5116134;28;20422;-71
2022/02/25 10:48:31;;;;;;;11.73;8.15;;;;;;;11.55;83.47;101411.19;5101808;28;20520;-71
2022/02/25 10:51:23;;;;;;;13.60;7.40;;;;;;;11.09;85.88;101400.25;5096834;28;20031;-71
2022/02/25 10:54:08;;;;;;;9.63;7.10;;;;;;;11.51;82.75;101399.84;5115833;28;20020;-71
2022/02/25 10:56:54;;;;;;;10.30;6.93;;;;;;;11.61;82.94;101387.53;5117432;28;20128;-71
2022/02/25 10:59:45;;;;;;;10.77;7.38;;;;;;;12.11;80.64;101387.78;5124879;27;20056;-70
2022/02/25 11:02:36;;;;;;;10.95;6.93;;;;;;;11.81;81.64;101375.91;5136066;27;20443;-71
2022/02/25 11:05:25;;;;;;;10.65;6.85;;;;;;;12.15;80.27;101374.63;5137164;27;20430;-71
2022/02/25 11:08:11;;;;;;;12.73;7.05;;;;;;;12.32;81.90;101362.09;5122088;27;20030;-71
2022/02/25 11:10:58;;;;;;;10.18;7.10;;;;;;;12.20;82.16;101371.91;5123232;27;20446;-71
2022/02/25 11:13:45;;;;;;;9.30;6.80;;;;;;;12.36;81.86;101355.91;5121389;27;20035;-71
2022/02/25 11:16:33;;;;;;;10.35;7.13;;;;;;;12.68;76.88;101360.66;5136787;27;20084;-71
2022/02/25 11:19:19;;;;;;;10.55;6.85;;;;;;;12.79;75.17;101342.97;5136382;27;20030;-71
2022/02/25 11:22:09;;;;;;;10.95;7.45;;;;;;;12.56;76.50;101345.09;5136863;27;20062;-72
2022/02/25 11:24:57;;;;;;;9.73;6.88;;;;;;;12.85;75.23;101334.97;5136794;27;20319;-71
2022/02/25 11:27:44;;;;;;;9.50;6.90;;;;;;;12.51;75.40;101329.41;5136579;27;20027;-72
2022/02/25 11:30:44;;;;;;;9.27;6.57;;;;;;;11.77;77.96;101337.47;5136510;27;20065;-71
2022/02/25 11:33:30;;;;;;;10.48;6.78;;;;;;;12.93;73.96;101323.44;5121163;27;20034;-71
2022/02/25 11:36:16;;;;;;;10.02;7.15;;;;;;;13.18;72.12;101330.03;5136541;27;20454;-71
2022/02/25 11:39:21;;;;;;;10.25;7.38;;;;;;;12.85;72.24;101327.06;5136291;27;20059;-72
2022/02/25 11:42:08;;;;;;;10.57;7.55;;;;;;;12.72;73.75;101330.81;5135888;27;20097;-71
2022/02/25 11:45:19;;;;;;;9.88;7.53;;;;;;;12.58;74.95;101330.19;5135679;27;20034;-72
2022/02/25 11:48:05;;;;;;;11.80;8.00;;;;;;;13.16;73.63;101320.41;5136613;27;20029;-72
2022/02/25 11:50:55;;;;;;;9.98;7.22;;;;;;;13.12;70.49;101327.50;5136139;27;20042;-71
2022/02/25 11:53:41;;;;;;;9.35;6.80;;;;;;;13.22;68.42;101330.84;5135840;27;20042;-71
2022/02/25 11:56:30;;;;;;;9.15;6.85;;;;;;;12.96;71.90;101318.13;5137223;27;20023;-71
2022/02/25 11:59:16;;;;;;;12.82;7.78;;;;;;;12.54;74.38;101331.13;5135631;27;20454;-71
2022/02/25 12:02:35;;;;;;;10.43;7.13;;;;;;;13.11;73.56;101325.75;5136585;27;20023;-72
2022/02/25 12:05:21;;;;;;;10.38;7.50;;;;;;;12.90;75.93;101318.22;5135451;27;20100;-72
2022/02/25 12:08:21;;;;;;;9.70;7.32;;;;;;;13.05;74.25;101315.34;5135039;27;20023;-71
2022/02/25 12:11:28;;;;;;;10.40;7.50;;;;;;;12.92;76.03;101305.91;5120686;27;20034;-72
2022/02/25 12:14:14;;;;;;;10.50;7.13;;;;;;;12.85;79.13;101309.53;5134165;27;20038;-72
2022/02/25 12:17:09;;;;;;;11.25;7.18;;;;;;;13.06;77.67;101310.97;5135230;27;20031;-71
2022/02/25 12:20:12;;;;;;;9.48;7.45;;;;;;;13.37;75.49;101301.59;5135732;27;20026;-72
2022/02/25 12:23:08;;;;;;;10.95;7.32;;;;;;;12.94;75.65;101292.75;5120906;27;20027;-71
2022/02/25 12:26:02;;;;;;;11.32;7.63;;;;;;;12.74;81.08;101300.97;5135961;27;20371;-71
2022/02/25 12:28:50;;;;;;;9.88;7.90;;;;;;;12.70;79.25;101298.44;5136089;27;20434;-72
2022/02/25 12:31:47;;;;;;;10.82;7.35;;;;;;;12.43;76.62;101289.25;5107808;27;20027;-72
2022/02/25 12:34:33;;;;;;;9.88;7.35;;;;;;;12.39;74.15;101289.31;5135448;27;20221;-72
2022/02/25 12:37:19;;;;;;;9.93;6.65;;;;;;;12.57;72.76;101278.47;5120389;27;20037;-71
2022/02/25 12:40:08;;;;;;;8.65;6.72;;;;;;;12.26;73.91;101270.22;5119662;27;20031;-70
2022/02/25 12:42:53;;;;;;;8.35;6.45;;;;;;;12.26;70.13;101267.59;5135257;27;20031;-71
2022/02/25 12:45:45;;;;;;;10.00;6.75;;;;;;;12.43;69.81;101272.59;5134503;27;20019;-73
2022/02/25 12:48:31;;;;;;;9.85;7.07;;;;;;;12.33;69.55;101263.09;5110916;27;20041;-73
2022/02/25 12:51:18;;;;;;;13.30;6.95;;;;;;;12.50;67.52;101258.47;5134417;27;20047;-71